createdAt,value
2024-04-03T00:01:32.247Z,100.00
2024-04-03T00:03:59.049Z,100.00
2024-04-03T00:06:25.933Z,100.00
2024-04-03T00:08:52.953Z,100.00
2024-04-03T00:11:19.743Z,100.00
2024-04-03T00:13:46.586Z,100.00
2024-04-03T00:16:13.507Z,100.00
2024-04-03T00:18:40.334Z,100.00
2024-04-03T00:21:07.184Z,100.00
2024-04-03T00:23:34.136Z,100.00
2024-04-03T00:26:01.861Z,100.00
2024-04-03T00:28:30.215Z,100.00
2024-04-03T00:30:57.277Z,100.00
2024-04-03T00:33:24.177Z,100.00
2024-04-03T00:35:57.587Z,100.00
2024-04-03T00:38:24.946Z,100.00
2024-04-03T00:41:01.592Z,100.00
2024-04-03T00:43:29.116Z,100.00
2024-04-03T00:45:58.647Z,100.00
2024-04-03T00:48:25.537Z,100.00
2024-04-03T00:50:53.100Z,100.00
2024-04-03T00:53:20.123Z,100.00
2024-04-03T00:55:47.015Z,100.00
2024-04-03T00:58:13.801Z,100.00
2024-04-03T01:00:40.732Z,100.00
2024-04-03T01:03:09.517Z,100.00
2024-04-03T01:05:36.389Z,100.00
2024-04-03T01:08:03.810Z,100.00
2024-04-03T01:10:30.886Z,100.00
2024-04-03T01:12:58.837Z,100.00
2024-04-03T01:15:25.784Z,100.00
2024-04-03T01:17:52.646Z,100.00
2024-04-03T01:20:19.677Z,100.00
2024-04-03T01:22:47.858Z,100.00
2024-04-03T01:25:14.716Z,100.00
2024-04-03T01:27:41.557Z,100.00
2024-04-03T01:30:08.472Z,100.00
2024-04-03T01:32:37.165Z,100.00
2024-04-03T01:35:04.724Z,100.00
2024-04-03T01:37:31.766Z,100.00
2024-04-03T01:39:58.647Z,100.00
2024-04-03T01:42:26.452Z,100.00
2024-04-03T01:44:53.579Z,100.00
2024-04-03T01:47:20.418Z,100.00
2024-04-03T01:49:47.235Z,100.00
2024-04-03T01:52:14.088Z,100.00
2024-04-03T01:54:40.948Z,100.00
2024-04-03T01:57:07.871Z,100.00
2024-04-03T01:59:34.679Z,100.00
2024-04-03T02:02:01.743Z,100.00
2024-04-03T02:04:28.951Z,100.00
2024-04-03T02:06:55.925Z,100.00
2024-04-03T02:09:22.801Z,100.00
2024-04-03T02:11:49.623Z,100.00
2024-04-03T02:14:16.467Z,100.00
2024-04-03T02:16:47.021Z,100.00
2024-04-03T02:19:14.318Z,100.00
2024-04-03T02:21:41.223Z,100.00
2024-04-03T02:24:16.041Z,100.00
2024-04-03T02:26:47.718Z,100.00
2024-04-03T02:29:14.712Z,100.00
2024-04-03T02:31:41.816Z,100.00
2024-04-03T02:34:09.066Z,100.00
2024-04-03T02:36:35.863Z,100.00
2024-04-03T02:39:03.309Z,100.00
2024-04-03T02:41:30.486Z,100.00
2024-04-03T02:43:57.307Z,100.00
2024-04-03T02:46:24.503Z,100.00
2024-04-03T02:48:51.346Z,100.00
2024-04-03T02:51:18.862Z,100.00
2024-04-03T02:53:45.797Z,100.00
2024-04-03T02:56:12.617Z,100.00
2024-04-03T02:58:39.535Z,100.00
2024-04-03T03:01:10.418Z,100.00
2024-04-03T03:03:37.889Z,100.00
2024-04-03T03:06:06.054Z,100.00
2024-04-03T03:08:34.168Z,100.00
2024-04-03T03:11:02.081Z,100.00
2024-04-03T03:13:29.449Z,100.00
2024-04-03T03:15:57.778Z,100.00
2024-04-03T03:18:29.494Z,100.00
2024-04-03T03:20:56.840Z,100.00
2024-04-03T03:23:23.928Z,100.00
2024-04-03T03:25:53.147Z,100.00
2024-04-03T03:28:20.733Z,100.00
2024-04-03T03:30:51.367Z,100.00
2024-04-03T03:33:18.681Z,100.00
2024-04-03T03:35:57.251Z,100.00
2024-04-03T03:38:24.261Z,100.00
2024-04-03T03:40:54.539Z,100.00
2024-04-03T03:43:21.793Z,100.00
2024-04-03T03:45:52.211Z,100.00
2024-04-03T03:48:19.499Z,100.00
2024-04-03T03:51:05.312Z,100.00
2024-04-03T03:53:33.215Z,100.00
2024-04-03T03:56:09.601Z,100.00
2024-04-03T03:58:36.644Z,100.00
2024-04-03T04:01:05.056Z,100.00
2024-04-03T04:03:32.156Z,100.00
2024-04-03T04:06:02.423Z,100.00
2024-04-03T04:08:30.846Z,100.00
2024-04-03T04:11:00.026Z,100.00
2024-04-03T04:13:27.734Z,100.00
2024-04-03T04:15:54.663Z,100.00
2024-04-03T04:18:21.741Z,100.00
2024-04-03T04:20:59.423Z,100.00
2024-04-03T04:23:26.752Z,100.00
2024-04-03T04:25:57.508Z,100.00
2024-04-03T04:28:24.774Z,100.00
2024-04-03T04:30:59.097Z,100.00
2024-04-03T04:33:26.194Z,100.00
2024-04-03T04:35:56.925Z,100.00
2024-04-03T04:38:25.280Z,100.00
2024-04-03T04:41:02.064Z,100.00
2024-04-03T04:43:29.735Z,100.00
2024-04-03T04:46:05.040Z,100.00
2024-04-03T04:48:33.077Z,100.00
2024-04-03T04:51:03.364Z,100.00
2024-04-03T04:53:30.507Z,100.00
2024-04-03T04:56:04.981Z,100.00
2024-04-03T04:58:32.407Z,100.00
2024-04-03T05:01:05.773Z,100.00
2024-04-03T05:03:33.123Z,100.00
2024-04-03T05:06:00.181Z,100.00
2024-04-03T05:08:27.642Z,100.00
2024-04-03T05:10:58.692Z,100.00
2024-04-03T05:13:30.189Z,100.00
2024-04-03T05:15:57.615Z,100.00
2024-04-03T05:18:24.611Z,100.00
2024-04-03T05:20:51.665Z,100.00
2024-04-03T05:23:18.914Z,100.00
2024-04-03T05:28:12.756Z,100.00
2024-04-03T05:30:40.395Z,100.00
2024-04-03T05:33:07.475Z,100.00
2024-04-03T05:35:34.598Z,100.00
2024-04-03T05:38:03.088Z,100.00
2024-04-03T05:40:30.112Z,100.00
2024-04-03T05:42:57.952Z,100.00
2024-04-03T05:45:24.866Z,100.00
2024-04-03T05:47:52.135Z,100.00
2024-04-03T05:50:19.068Z,100.00
2024-04-03T05:52:46.009Z,100.00
2024-04-03T05:55:14.714Z,100.00
2024-04-03T05:57:41.932Z,100.00
2024-04-03T06:00:09.638Z,100.00
2024-04-03T06:02:39.453Z,100.00
2024-04-03T06:05:06.478Z,100.00
2024-04-03T06:07:35.322Z,100.00
2024-04-03T06:10:03.323Z,100.00
2024-04-03T06:12:31.021Z,100.00
2024-04-03T06:14:58.163Z,96.58
2024-04-03T06:17:25.738Z,90.71
2024-04-03T06:19:53.186Z,85.51
2024-04-03T06:22:20.085Z,79.18
2024-04-03T06:24:47.007Z,72.66
2024-04-03T06:27:16.932Z,68.41
2024-04-03T06:29:43.860Z,63.49
2024-04-03T06:32:11.938Z,59.88
2024-04-03T06:34:38.916Z,58.09
2024-04-03T06:37:06.526Z,55.74
2024-04-03T06:39:34.486Z,53.95
2024-04-03T06:42:01.992Z,53.45
2024-04-03T06:44:29.013Z,52.56
2024-04-03T06:47:02.157Z,50.33
2024-04-03T06:49:30.589Z,48.32
2024-04-03T06:51:57.586Z,46.65
2024-04-03T06:54:24.873Z,46.07
2024-04-03T06:56:51.713Z,45.30
2024-04-03T06:59:18.820Z,45.49
2024-04-03T07:01:48.407Z,44.60
2024-04-03T07:04:15.781Z,44.57
2024-04-03T07:06:42.734Z,43.71
2024-04-03T07:09:09.709Z,42.98
2024-04-03T07:11:36.706Z,42.36
2024-04-03T07:14:03.546Z,41.51
2024-04-03T07:16:30.741Z,40.67
2024-04-03T07:18:57.895Z,40.10
2024-04-03T07:21:27.614Z,39.13
2024-04-03T07:23:55.820Z,38.36
2024-04-03T07:26:24.612Z,38.40
2024-04-03T07:28:51.622Z,38.41
2024-04-03T07:31:19.017Z,38.55
2024-04-03T07:33:45.890Z,38.66
2024-04-03T07:36:12.769Z,39.53
2024-04-03T07:38:39.858Z,39.59
2024-04-03T07:41:06.695Z,39.55
2024-04-03T07:43:34.033Z,39.26
2024-04-03T07:46:01.183Z,39.38
2024-04-03T07:48:28.115Z,39.00
2024-04-03T07:51:01.920Z,39.65
2024-04-03T07:53:28.856Z,39.53
2024-04-03T07:55:55.706Z,39.21
2024-04-03T07:58:22.701Z,39.37
2024-04-03T08:01:01.322Z,39.34
2024-04-03T08:03:33.217Z,40.24
2024-04-03T08:06:01.042Z,40.19
2024-04-03T08:08:29.831Z,40.02
2024-04-03T08:11:01.562Z,40.97
2024-04-03T08:13:28.626Z,40.23
2024-04-03T08:16:03.760Z,39.92
2024-04-03T08:18:32.024Z,39.53
2024-04-03T08:21:07.553Z,39.65
2024-04-03T08:23:35.042Z,38.91
2024-04-03T08:26:07.058Z,38.22
2024-04-03T08:28:38.237Z,38.53
2024-04-03T08:31:13.862Z,38.25
2024-04-03T08:33:42.060Z,38.17
2024-04-03T08:36:11.801Z,38.86
2024-04-03T08:38:39.222Z,40.04
2024-04-03T08:41:06.636Z,40.06
2024-04-03T08:43:37.128Z,39.94
2024-04-03T08:46:04.433Z,39.65
2024-04-03T08:48:32.152Z,39.37
2024-04-03T08:50:59.043Z,39.70
2024-04-03T08:53:26.189Z,39.63
2024-04-03T08:55:54.303Z,39.71
2024-04-03T08:58:21.776Z,40.05
2024-04-03T09:00:49.116Z,40.36
2024-04-03T09:03:16.160Z,40.46
2024-04-03T09:05:43.100Z,39.58
2024-04-03T09:08:11.412Z,39.08
2024-04-03T09:10:48.493Z,38.92
2024-04-03T09:13:15.510Z,38.77
2024-04-03T09:15:42.782Z,38.44
2024-04-03T09:18:10.854Z,38.29
2024-04-03T09:20:41.508Z,38.13
2024-04-03T09:23:10.412Z,38.03
2024-04-03T09:25:37.915Z,37.32
2024-04-03T09:28:06.715Z,37.85
2024-04-03T09:30:34.539Z,37.81
2024-04-03T09:33:07.563Z,37.06
2024-04-03T09:35:36.369Z,36.78
2024-04-03T09:38:04.016Z,37.38
2024-04-03T09:40:36.211Z,37.11
2024-04-03T09:43:10.400Z,37.16
2024-04-03T09:45:37.349Z,36.24
2024-04-03T09:48:07.997Z,36.38
2024-04-03T09:50:47.122Z,35.88
2024-04-03T09:53:18.684Z,35.89
2024-04-03T09:55:48.190Z,36.39
2024-04-03T09:58:16.063Z,36.53
2024-04-03T10:00:55.437Z,36.42
2024-04-03T10:03:23.964Z,36.35
2024-04-03T10:06:01.086Z,36.70
2024-04-03T10:08:41.476Z,37.10
2024-04-03T10:11:09.952Z,37.77
2024-04-03T10:13:40.200Z,37.88
2024-04-03T10:16:14.266Z,37.80
2024-04-03T10:18:50.251Z,37.37
2024-04-03T10:21:17.267Z,37.64
2024-04-03T10:23:47.900Z,36.91
2024-04-03T10:26:19.100Z,37.52
2024-04-03T10:28:48.955Z,37.37
2024-04-03T10:31:20.067Z,37.30
2024-04-03T10:33:52.204Z,37.37
2024-04-03T10:36:19.470Z,37.92
2024-04-03T10:38:47.039Z,38.15
2024-04-03T10:41:17.129Z,37.11
2024-04-03T10:43:56.042Z,37.43
2024-04-03T10:49:14.026Z,37.37
2024-04-03T10:51:41.487Z,36.48
2024-04-03T10:54:10.848Z,36.11
2024-04-03T10:56:37.850Z,36.87
2024-04-03T10:59:04.933Z,37.02
2024-04-03T11:01:33.028Z,35.78
2024-04-03T11:04:05.299Z,35.23
2024-04-03T11:06:32.977Z,35.10
2024-04-03T11:09:03.670Z,35.06
2024-04-03T11:11:32.058Z,35.15
2024-04-03T11:14:02.478Z,35.42
2024-04-03T11:16:29.735Z,35.67
2024-04-03T11:18:56.747Z,36.07
2024-04-03T11:21:24.492Z,36.65
2024-04-03T11:23:54.464Z,37.06
2024-04-03T11:26:22.237Z,37.75
2024-04-03T11:28:49.096Z,37.34
2024-04-03T11:31:16.003Z,37.15
2024-04-03T11:33:43.465Z,37.69
2024-04-03T11:36:11.303Z,37.52
2024-04-03T11:38:39.738Z,37.56
2024-04-03T11:41:06.779Z,36.85
2024-04-03T11:43:33.936Z,35.56
2024-04-03T11:46:04.495Z,35.34
2024-04-03T11:48:40.259Z,35.61
2024-04-03T11:51:07.293Z,35.90
2024-04-03T11:53:34.338Z,36.12
2024-04-03T11:56:02.496Z,36.97
2024-04-03T11:58:29.899Z,37.31
2024-04-03T12:00:56.730Z,36.90
2024-04-03T12:03:23.786Z,36.48
2024-04-03T12:05:52.165Z,36.52
2024-04-03T12:08:23.031Z,36.81
2024-04-03T12:10:50.076Z,37.12
2024-04-03T12:13:17.031Z,37.08
2024-04-03T12:15:48.483Z,37.25
2024-04-03T12:18:22.127Z,37.22
2024-04-03T12:20:49.134Z,36.96
2024-04-03T12:23:17.389Z,37.24
2024-04-03T12:25:45.344Z,37.34
2024-04-03T12:28:12.930Z,36.98
2024-04-03T12:30:40.565Z,37.27
2024-04-03T12:33:07.745Z,37.00
2024-04-03T12:35:35.324Z,37.34
2024-04-03T12:38:20.748Z,37.80
2024-04-03T12:40:49.629Z,38.59
2024-04-03T12:43:16.653Z,38.55
2024-04-03T12:45:43.888Z,38.24
2024-04-03T12:48:10.897Z,37.12
2024-04-03T12:50:37.931Z,36.92
2024-04-03T12:53:06.048Z,37.31
2024-04-03T12:55:33.221Z,37.77
2024-04-03T12:58:00.652Z,37.87
2024-04-03T13:00:27.721Z,37.84
2024-04-03T13:02:55.688Z,38.02
2024-04-03T13:05:22.680Z,38.41
2024-04-03T13:07:49.627Z,38.68
2024-04-03T13:10:16.505Z,38.53
2024-04-03T13:12:43.572Z,38.39
2024-04-03T13:15:12.226Z,38.69
2024-04-03T13:17:39.462Z,39.20
2024-04-03T13:20:07.169Z,39.80
2024-04-03T13:22:34.979Z,39.63
2024-04-03T13:25:01.934Z,39.32
2024-04-03T13:27:29.123Z,38.79
2024-04-03T13:29:56.139Z,38.51
2024-04-03T13:32:24.144Z,38.19
2024-04-03T13:34:51.211Z,38.56
2024-04-03T13:37:23.266Z,38.63
2024-04-03T13:39:50.232Z,38.93
2024-04-03T13:42:18.502Z,38.62
2024-04-03T13:44:46.140Z,38.59
2024-04-03T13:47:13.084Z,38.89
2024-04-03T13:49:40.343Z,39.00
2024-04-03T13:52:10.045Z,39.46
2024-04-03T13:54:37.945Z,39.66
2024-04-03T13:57:05.888Z,40.10
2024-04-03T13:59:33.449Z,40.30
2024-04-03T14:02:00.303Z,39.95
2024-04-03T14:04:28.320Z,39.88
2024-04-03T14:06:56.829Z,39.67
2024-04-03T14:09:23.727Z,40.08
2024-04-03T14:11:50.579Z,39.85
2024-04-03T14:14:17.418Z,39.48
2024-04-03T14:16:44.523Z,39.84
2024-04-03T14:19:12.723Z,39.91
2024-04-03T14:21:39.636Z,40.19
2024-04-03T14:24:06.496Z,40.35
2024-04-03T14:26:33.498Z,40.00
2024-04-03T14:29:00.390Z,39.85
2024-04-03T14:31:29.434Z,39.87
2024-04-03T14:33:56.784Z,39.84
2024-04-03T14:36:23.828Z,40.00
2024-04-03T14:38:50.983Z,40.10
2024-04-03T14:41:17.860Z,40.06
2024-04-03T14:43:44.887Z,40.32
2024-04-03T14:46:13.299Z,40.60
2024-04-03T14:48:41.639Z,40.80
2024-04-03T14:51:11.490Z,41.09
2024-04-03T14:53:38.478Z,41.03
2024-04-03T14:56:05.790Z,41.42
2024-04-03T14:58:35.084Z,41.30
2024-04-03T15:01:01.930Z,41.54
2024-04-03T15:03:29.443Z,41.70
2024-04-03T15:05:56.400Z,41.88
2024-04-03T15:08:23.483Z,42.15
2024-04-03T15:10:53.301Z,41.90
2024-04-03T15:13:20.342Z,41.62
2024-04-03T15:15:47.488Z,41.54
2024-04-03T15:18:15.762Z,41.71
2024-04-03T15:20:46.864Z,41.84
2024-04-03T15:23:13.840Z,41.74
2024-04-03T15:25:40.694Z,41.99
2024-04-03T15:28:07.682Z,41.94
2024-04-03T19:08:36.706Z,49.52
2024-04-03T19:11:05.240Z,49.68
2024-04-03T19:13:32.719Z,49.87
2024-04-03T19:16:07.710Z,50.06
2024-04-03T19:18:44.565Z,50.18
2024-04-03T19:21:12.654Z,50.49
2024-04-03T19:23:39.655Z,50.79
2024-04-03T19:26:07.574Z,51.26
2024-04-03T19:28:36.021Z,51.53
2024-04-03T19:31:03.085Z,51.92
2024-04-03T19:33:32.933Z,52.43
2024-04-03T19:36:00.091Z,52.62
2024-04-03T19:38:27.535Z,52.79
2024-04-03T19:40:54.506Z,53.02
2024-04-03T19:43:23.324Z,53.12
2024-04-03T19:45:50.967Z,53.41
2024-04-03T19:48:18.328Z,53.67
2024-04-03T19:50:46.199Z,53.98
2024-04-03T19:53:14.150Z,54.41
2024-04-03T19:55:41.984Z,54.61
2024-04-03T19:58:08.995Z,54.47
2024-04-03T20:00:36.608Z,54.61
2024-04-03T20:03:05.210Z,55.00
2024-04-03T20:05:32.804Z,55.27
2024-04-03T20:08:02.232Z,55.47
2024-04-03T20:10:43.824Z,55.80
2024-04-03T20:13:11.384Z,56.02
2024-04-03T20:15:40.718Z,56.29
2024-04-03T20:18:08.225Z,56.45
2024-04-03T20:20:44.945Z,56.84
2024-04-03T20:23:12.711Z,57.15
2024-04-03T20:25:43.238Z,57.46
2024-04-03T20:28:10.269Z,57.82
2024-04-03T20:30:37.304Z,58.02
2024-04-03T20:33:06.139Z,58.45
2024-04-03T20:35:39.438Z,58.17
2024-04-03T20:38:13.053Z,58.39
2024-04-03T20:40:41.420Z,58.74
2024-04-03T20:43:08.675Z,59.60
2024-04-03T20:45:36.634Z,59.88
2024-04-03T20:48:04.424Z,60.37
2024-04-03T20:50:31.893Z,60.75
2024-04-03T20:52:59.222Z,60.52
2024-04-03T20:55:28.863Z,60.64
2024-04-03T20:57:56.667Z,60.89
2024-04-03T21:00:23.581Z,61.06
2024-04-03T21:02:50.429Z,61.40
2024-04-03T21:05:17.245Z,61.83
2024-04-03T21:07:48.543Z,62.17
2024-04-03T21:10:15.425Z,62.56
2024-04-03T21:12:48.206Z,62.93
2024-04-03T21:15:15.812Z,63.08
2024-04-03T21:17:42.756Z,63.06
2024-04-03T21:20:12.679Z,63.43
2024-04-03T21:22:43.723Z,63.84
2024-04-03T21:25:10.681Z,64.13
2024-04-03T21:27:37.608Z,65.01
2024-04-03T21:30:05.198Z,65.71
2024-04-03T21:32:32.514Z,66.70
2024-04-03T21:34:59.774Z,67.03
2024-04-03T21:37:30.136Z,66.79
2024-04-03T21:39:56.962Z,67.33
2024-04-03T21:42:24.599Z,67.31
2024-04-03T21:44:55.915Z,67.53
2024-04-03T21:47:23.770Z,68.22
2024-04-03T21:49:50.779Z,68.97
2024-04-03T21:52:17.952Z,69.53
2024-04-03T21:54:44.855Z,69.68
2024-04-03T21:57:11.695Z,70.33
2024-04-03T21:59:38.514Z,69.87
2024-04-03T22:02:06.444Z,69.72
2024-04-03T22:04:33.543Z,69.31
2024-04-03T22:07:00.478Z,70.72
2024-04-03T22:09:27.530Z,71.43
2024-04-03T22:11:54.765Z,70.46
2024-04-03T22:14:21.744Z,70.86
2024-04-03T22:16:48.733Z,70.67
2024-04-03T22:19:15.574Z,70.71
2024-04-03T22:21:43.357Z,70.75
2024-04-03T22:24:10.241Z,70.55
2024-04-03T22:26:37.082Z,70.65
2024-04-03T22:29:04.050Z,70.86
2024-04-03T22:31:31.167Z,70.91
2024-04-03T22:33:58.161Z,70.90
2024-04-03T22:36:25.012Z,70.38
2024-04-03T22:38:52.031Z,69.87
2024-04-03T22:41:19.446Z,69.38
2024-04-03T22:43:46.382Z,69.83
2024-04-03T22:46:13.224Z,70.33
2024-04-03T22:48:40.213Z,71.17
2024-04-03T22:51:07.124Z,70.97
2024-04-03T22:53:35.891Z,71.12
2024-04-03T22:56:03.262Z,71.96
2024-04-03T22:58:30.650Z,72.55
2024-04-03T23:00:57.574Z,72.61
2024-04-03T23:03:24.458Z,74.11
2024-04-03T23:05:58.360Z,74.71
2024-04-03T23:08:25.551Z,75.16
2024-04-03T23:10:56.603Z,76.35
2024-04-03T23:13:23.766Z,78.34
2024-04-03T23:15:50.790Z,79.70
2024-04-03T23:18:18.128Z,81.46
2024-04-03T23:20:45.386Z,82.59
2024-04-03T23:23:12.331Z,83.06
2024-04-03T23:25:39.611Z,83.17
2024-04-03T23:28:06.645Z,82.63
2024-04-03T23:30:33.618Z,82.30
2024-04-03T23:33:00.649Z,82.83
2024-04-03T23:35:27.606Z,83.18
2024-04-03T23:37:54.457Z,83.09
2024-04-03T23:40:21.410Z,83.55
2024-04-03T23:42:48.425Z,83.64
2024-04-03T23:45:15.411Z,83.92
2024-04-03T23:47:42.261Z,83.90
2024-04-03T23:50:09.416Z,84.48
2024-04-03T23:52:36.470Z,85.76
2024-04-03T23:55:04.219Z,85.54
2024-04-03T23:57:31.451Z,86.06
2024-04-03T23:59:58.349Z,85.95
